METAR AND TAF INFORMATION
METAR FOR LSZS
ADDS - METARS form results

(0809 UTC 02 April 2020)
Data provider http://aviationweather.gov/metar/data/
 
METAR text: LSZS 020750Z AUTO 06002KT CAVOK M07/M11 Q1011
Conditions at: LSZS (SAMEDAN , CH) observed 0750 UTC 02 April 2020
Temperature: -7.0°C (19°F)
Dewpoint: -11.0°C (12°F) [RH = 73%]
Pressure (altimeter): 29.85 inches Hg (1011.0 mb)
Winds: from the ENE (60 degrees) at 2 MPH (2 knots; 1.0 m/s)
Visibility: 6 or more miles (10+ km)
Ceiling: ceiling and visibility are OK
Clouds: unknown
Weather: no significant weather observed at this time

METAR text: LSZS 020720Z AUTO 00000KT CAVOK M09/M11 Q1011
Conditions at: LSZS (SAMEDAN , CH) observed 0720 UTC 02 April 2020
Temperature: -9.0°C (16°F)
Dewpoint: -11.0°C (12°F) [RH = 85%]
Pressure (altimeter): 29.85 inches Hg (1011.0 mb)
Winds: calm
Visibility: 6 or more miles (10+ km)
Ceiling: ceiling and visibility are OK
Clouds: unknown
Weather: no significant weather observed at this time

Forecast for: LSZS (SAMEDAN , CH)
Text: TAF LSZS 020525Z 0206/0215 20003KT CAVOK TX06/0214Z
Forecast period: 0600 to 1500 UTC 02 April 2020
Forecast type: FROM: standard forecast or significant change
Winds: from the SSW (200 degrees) at 3 MPH (3 knots; 1.5 m/s)
Visibility: 6 or more miles 10+ km)
Ceiling: unknown
Clouds: missing
Weather: no significant weather forecast for this period

 AIRPORT MAP

 RUNWAY INFORMATION
Runway 03 Runway length 5905 ft Runway width 130 ft
Runway elevation 5600 ft Runway displaced threshold 0 ft Runway heading 29
Runway 21 Runway length 5905 ft Runway width 130 ft
Runway elevation 5574 ft Runway displaced threshold 360 ft Runway heading 209

 AIRPORT FREQUENCIES
Type A/G Name GLIDER Frequency 123.67 MHZ
Type ATIS Name ATIS Frequency 136.6 MHZ
Type GND Name GND Frequency 121.6 MHZ
Type INFO Name INFO Frequency 138.05 MHZ
Type TWR Name TWR Frequency 135.325 MHZ

 AIRPORT NEAR NAVIGATION AIDS



Powered by Virtual Airlines Manager [v2.6.2]